Latest Weather Observations for Macquarie Island

IDT60801

Issued at 12:32 pm EDT Wednesday 16 January 2019 (issued every 10 minutes, with the page automatically refreshed every 10 minutes)

About weather observations | Map of weather stations | Latest weather observations for TAS | Other Formats
Station Details ID: 300004 Name: MACQUARIE ISLAND Lat: -54.50 Lon: 158.94 Height: 6.0 m
Data from the previous 72 hours. | See also: Recent months at Macquarie Island
Date/Time
EDT
Temp
°C
App
Temp
°C
Dew
Point
°C
Rel
Hum
%
Delta-T
°C
Wind Press
QNH
hPa
Press
MSL
hPa
Rain since
9am
mm
Dir  Spd
km/h
Gust
km/h
Spd
kts
Gust
kts
16/12:30pm 6.7 1.5 5.3 91 0.6 S 22 28 12 15 996.3 - 0.0
16/12:00pm 6.1 0.4 5.1 93 0.4 S 24 32 13 17 995.9 996.2 0.0
16/11:30am 6.7 1.5 5.5 92 0.5 S 22 26 12 14 995.5 - 0.0
16/11:00am 6.8 1.2 5.6 92 0.5 SSE 24 28 13 15 995.2 - 0.0
16/10:30am 6.5 0.9 5.6 94 0.4 SSE 24 30 13 16 995.2 - 0.0
16/10:00am 6.3 0.4 5.6 95 0.3 S 26 30 14 16 995.0 - 0.0
16/09:30am 6.5 1.0 5.8 95 0.3 S 24 30 13 16 994.6 - 0.0
16/09:00am 6.6 1.1 5.9 95 0.3 S 24 28 13 15 994.2 994.5 0.2
16/08:30am 6.4 0.9 5.7 95 0.3 S 24 30 13 16 994.1 - 0.2
16/08:00am 6.3 0.7 5.6 95 0.3 S 24 28 13 15 994.1 - 0.2
16/07:30am 6.2 0.6 5.5 95 0.3 S 24 33 13 18 994.3 - 0.0
16/07:00am 6.0 -0.4 5.3 95 0.3 S 28 32 15 17 994.3 - 0.0
16/06:30am 6.0 -0.4 5.1 94 0.4 S 28 32 15 17 994.2 - 0.0
16/06:00am 6.2 0.2 5.3 94 0.4 SSE 26 32 14 17 994.3 994.6 0.0
16/05:30am 6.2 0.6 5.3 94 0.4 SSE 24 30 13 16 994.5 - 0.0
16/05:00am 6.2 0.6 5.3 94 0.4 S 24 28 13 15 995.0 - 0.0
16/04:30am 6.1 0.8 5.2 94 0.4 SSE 22 28 12 15 995.6 - 0.0
16/04:00am 5.9 1.2 5.0 94 0.4 SSE 19 22 10 12 996.0 - 0.0
16/03:30am 5.9 1.1 4.9 93 0.4 SSE 19 20 10 11 996.4 - 0.0
16/03:00am 5.8 0.8 4.8 93 0.4 S 20 24 11 13 996.6 996.9 0.0
16/02:30am 6.0 2.4 5.0 93 0.4 SSE 13 17 7 9 997.6 - 0.0
16/02:00am 6.1 3.3 5.1 93 0.4 SSE 9 11 5 6 998.7 - 0.0
16/01:30am 6.2 3.8 5.2 93 0.4 ESE 7 9 4 5 999.2 - 0.0
16/01:00am 6.3 3.6 5.4 94 0.4 E 9 11 5 6 999.7 - 0.0
16/12:30am 6.5 4.7 5.6 94 0.4 N 4 9 2 5 999.8 - 0.0
16/12:00am 6.2 3.4 5.3 94 0.4 WNW 9 11 5 6 1000.2 1000.5 0.0
 
Date/Time
EDT
Temp
°C
App
Temp
°C
Dew
Point
°C
Rel
Hum
%
Delta-T
°C
Wind Press
QNH
hPa
Press
MSL
hPa
Rain since
9am
mm
Dir  Spd
km/h
Gust
km/h
Spd
kts
Gust
kts
15/11:30pm 6.1 3.3 5.2 94 0.4 NNW 9 13 5 7 1000.5 - 0.0
15/11:00pm 6.3 2.4 5.4 94 0.4 N 15 19 8 10 1001.1 - 0.0
15/10:30pm 6.5 3.8 5.5 93 0.4 N 9 11 5 6 1001.4 - 0.0
15/10:00pm 6.6 3.9 5.6 93 0.4 NNW 9 11 5 6 1001.9 - 0.0
15/09:30pm 6.8 3.0 5.7 93 0.5 NW 15 17 8 9 1002.2 - 0.0
15/09:00pm 6.9 2.8 6.0 94 0.4 NW 17 20 9 11 1002.3 1002.6 0.0
15/08:30pm 6.6 2.8 5.6 93 0.4 WNW 15 17 8 9 1002.3 - 0.0
15/08:00pm 6.8 3.0 5.6 92 0.5 NW 15 19 8 10 1002.4 - 0.0
15/07:30pm 7.2 2.7 6.0 92 0.5 NW 19 22 10 12 1002.4 - 0.0
15/07:00pm 7.2 1.3 5.8 91 0.6 NNW 26 30 14 16 1002.3 - 0.0
15/06:30pm 7.7 1.5 6.2 90 0.7 NNW 28 32 15 17 1002.3 - 0.0
15/06:00pm 7.9 1.7 6.2 89 0.8 NNW 28 33 15 18 1002.1 1002.4 0.0
15/05:30pm 8.0 1.5 6.3 89 0.8 NNW 30 33 16 18 1002.3 - 0.0
15/05:00pm 8.6 2.5 6.6 87 0.9 NNW 28 33 15 18 1002.5 - 0.0
15/04:30pm 8.4 1.5 6.4 87 0.9 NNW 32 39 17 21 1002.7 - 0.0
15/04:00pm 8.4 1.3 6.2 86 1.0 NNW 33 39 18 21 1002.8 - 0.0
15/03:30pm 8.9 1.5 6.7 86 1.0 NNW 35 41 19 22 1002.9 - 0.0
15/03:00pm 8.7 0.8 6.3 85 1.1 NNW 37 44 20 24 1002.9 1003.2 0.0
15/02:30pm 8.6 0.4 6.4 86 1.0 NNW 39 44 21 24 1003.0 - 0.0
15/02:00pm 8.3 0.0 6.1 86 1.0 NNW 39 46 21 25 1003.2 - 0.0
15/01:30pm 8.4 0.5 6.2 86 1.0 NNW 37 43 20 23 1003.1 - 0.0
15/01:00pm 8.3 0.4 6.1 86 1.0 NNW 37 46 20 25 1003.2 - 0.0
15/12:30pm 8.1 0.2 6.1 87 0.9 NNW 37 43 20 23 1003.5 - 0.0
15/12:00pm 7.6 -0.7 6.1 90 0.7 NNW 39 41 21 22 1003.6 1003.9 0.0
15/11:30am 7.3 -0.7 5.8 90 0.7 NNW 37 43 20 23 1003.9 - 0.0
15/11:00am 7.1 -0.9 5.6 90 0.7 NNW 37 43 20 23 1004.1 - 0.0
15/10:30am 7.7 -0.7 5.8 88 0.9 NNW 39 43 21 23 1004.2 - 0.0
15/10:00am 7.8 -0.5 5.9 88 0.9 NNW 39 43 21 23 1004.3 - 0.0
15/09:30am 7.6 0.0 5.7 88 0.9 NNW 35 41 19 22 1004.5 - 0.0
15/09:00am 7.0 -0.7 5.3 89 0.8 NNW 35 39 19 21 1004.9 1005.2 6.0
15/08:30am 6.9 -0.5 5.1 88 0.8 NNW 33 37 18 20 1005.0 - 6.0
15/08:00am 7.2 1.1 5.0 86 1.0 NW 26 32 14 17 1005.1 - 6.0
15/07:30am 6.8 -0.6 4.8 87 0.9 NW 33 39 18 21 1005.3 - 6.0
15/07:00am 6.7 -0.1 4.9 88 0.8 NW 30 39 16 21 1004.9 - 6.0
15/06:30am 6.7 -0.7 4.9 88 0.8 NW 33 39 18 21 1005.0 - 6.0
15/06:00am 6.7 -0.5 5.2 90 0.7 NW 32 39 17 21 1005.0 1005.3 6.0
15/05:30am 6.6 -0.6 5.1 90 0.7 NW 32 39 17 21 1004.9 - 6.0
15/05:00am 6.5 -0.8 5.3 92 0.5 NW 33 41 18 22 1004.7 - 6.0
15/04:30am 6.4 -0.4 5.2 92 0.5 NW 30 37 16 20 1004.6 - 6.0
15/04:00am 6.5 -1.6 5.1 91 0.6 NW 37 44 20 24 1004.7 - 6.0
15/03:30am 6.6 -1.8 5.4 92 0.5 NW 39 48 21 26 1004.4 - 6.0
15/03:00am 6.6 -1.1 5.4 92 0.5 NW 35 41 19 22 1004.5 1004.8 6.0
15/02:30am 6.7 -2.2 5.3 91 0.6 NW 41 48 22 26 1004.2 - 6.0
15/02:00am 6.7 -1.0 5.2 90 0.7 NW 35 41 19 22 1004.2 - 6.0
15/01:30am 6.7 -1.0 5.2 90 0.7 NW 35 41 19 22 1004.2 - 6.0
15/01:00am 6.6 -1.1 5.2 91 0.6 NW 35 43 19 23 1003.9 - 6.0
15/12:30am 6.6 -0.8 5.2 91 0.6 NW 33 39 18 21 1003.7 - 6.0
15/12:00am 6.6 0.6 5.2 91 0.6 NW 26 30 14 16 1003.5 1003.8 6.0
 
Date/Time
EDT
Temp
°C
App
Temp
°C
Dew
Point
°C
Rel
Hum
%
Delta-T
°C
Wind Press
QNH
hPa
Press
MSL
hPa
Rain since
9am
mm
Dir  Spd
km/h
Gust
km/h
Spd
kts
Gust
kts
14/11:30pm 6.8 0.8 5.3 90 0.7 WNW 26 32 14 17 1003.6 - 6.0
14/11:00pm 6.6 1.0 5.2 91 0.6 NW 24 26 13 14 1003.7 - 6.0
14/10:30pm 7.1 1.4 4.8 85 1.0 WNW 24 39 13 21 1003.3 - 6.0
14/10:00pm 7.4 0.1 4.7 83 1.2 W 32 39 17 21 1002.9 - 6.0
14/09:30pm 7.3 -0.5 4.8 84 1.1 W 35 43 19 23 1002.5 - 6.0
14/09:00pm 7.3 -0.6 4.6 83 1.2 W 35 39 19 21 1002.0 1002.3 6.0
14/08:30pm 7.1 -0.8 4.2 82 1.3 W 35 50 19 27 1001.5 - 6.0
14/08:21pm 7.2 -0.7 4.2 81 1.3 W 35 54 19 29 1001.4 - 6.0
14/08:00pm 7.1 -0.7 4.8 85 1.0 W 35 41 19 22 1000.9 - 6.0
14/07:30pm 7.1 -0.8 4.6 84 1.1 W 35 50 19 27 1000.2 - 6.0
14/07:14pm 7.1 -0.8 4.6 84 1.1 W 35 56 19 30 999.8 - 6.0
14/07:00pm 7.1 -0.7 5.1 87 0.9 W 35 50 19 27 999.6 - 6.0
14/06:30pm 7.0 0.3 5.5 90 0.7 W 30 48 16 26 998.7 - 6.0
14/06:03pm 7.2 0.8 5.3 88 0.8 W 28 46 15 25 998.2 - 6.0
14/06:00pm 7.3 0.6 5.4 88 0.9 W 30 46 16 25 998.0 998.3 6.0
14/05:31pm 7.8 -1.8 6.3 90 0.7 W 46 67 25 36 997.2 - 6.0
14/05:30pm 7.8 -1.8 6.4 91 0.6 W 46 63 25 34 997.3 - 6.0
14/05:16pm 7.9 -1.1 7.1 95 0.4 W 44 57 24 31 996.9 - 6.0
14/05:14pm 7.8 -1.6 7.1 95 0.3 WNW 46 67 25 36 996.8 - 6.0
14/05:00pm 7.8 -2.4 7.1 95 0.3 NW 50 59 27 32 996.2 - 6.0
14/04:30pm 8.0 -2.9 7.2 95 0.4 NW 54 63 29 34 995.6 - 6.0
14/04:00pm 8.1 -2.4 7.3 95 0.4 NW 52 65 28 35 995.3 - 6.0
14/03:30pm 8.0 -2.1 7.2 95 0.4 NW 50 61 27 33 995.1 - 6.0
14/03:02pm 8.0 -2.9 7.2 95 0.4 NNW 54 72 29 39 995.0 - 6.0
14/03:00pm 8.1 -3.2 7.3 95 0.4 NNW 56 72 30 39 994.9 995.2 6.0
14/02:30pm 8.1 -4.1 7.3 95 0.4 NNW 61 74 33 40 994.9 - 6.0
14/02:03pm 8.2 -4.0 7.3 94 0.4 NNW 61 80 33 43 995.2 - 5.8
14/02:00pm 8.3 -3.9 7.4 94 0.4 NNW 61 76 33 41 995.1 - 5.8
14/01:30pm 8.0 -3.5 7.2 95 0.4 NNW 57 67 31 36 995.7 - 5.8
14/01:00pm 7.9 -3.4 7.3 96 0.3 NNW 56 63 30 34 996.3 - 5.2
14/12:30pm 7.9 -3.6 7.3 96 0.3 NNW 57 67 31 36 997.0 - 4.8
14/12:00pm 7.5 -3.1 6.9 96 0.3 N 52 61 28 33 997.9 998.2 4.0
14/11:52am 7.3 -2.6 6.7 96 0.3 N 48 56 26 30 998.3 - 3.8
14/11:30am 6.9 -0.1 6.2 95 0.3 N 32 37 17 20 999.2 - 2.4
14/11:00am 7.4 0.3 6.3 93 0.5 N 33 39 18 21 1000.5 - 0.2
14/10:30am 7.4 -0.1 6.2 92 0.5 N 35 39 19 21 1001.6 - 0.0
14/10:00am 7.4 0.5 6.3 93 0.5 NNW 32 39 17 21 1002.6 - 0.0
14/09:30am 7.2 0.2 6.1 93 0.5 NNW 32 35 17 19 1003.4 - 0.0
14/09:00am 7.4 0.4 6.2 92 0.5 NNW 32 33 17 18 1004.0 1004.3 0.2
14/08:30am 7.4 1.2 6.0 91 0.6 NNW 28 32 15 17 1004.6 - 0.2
14/08:00am 7.4 2.3 5.9 90 0.7 NW 22 26 12 14 1004.9 - 0.2
14/07:30am 7.2 1.6 5.5 89 0.8 NW 24 30 13 16 1005.3 - 0.2
14/07:00am 6.9 0.5 5.2 89 0.7 NW 28 32 15 17 1005.6 - 0.2
14/06:30am 6.9 1.3 5.2 89 0.7 NW 24 28 13 15 1005.8 - 0.2
14/06:00am 6.7 0.7 5.2 90 0.7 WNW 26 32 14 17 1006.3 1006.6 0.2
14/05:30am 6.6 -0.6 5.1 90 0.7 NW 32 37 17 20 1006.2 - 0.2
14/05:00am 6.6 -0.6 5.1 90 0.7 NW 32 37 17 20 1006.3 - 0.2
14/04:30am 6.4 -1.0 4.9 90 0.7 WNW 33 41 18 22 1006.0 - 0.2
14/04:00am 6.5 -0.9 5.0 90 0.7 WNW 33 41 18 22 1006.0 - 0.2
14/03:30am 6.7 -1.5 5.0 89 0.7 WNW 37 44 20 24 1005.8 - 0.2
14/03:00am 6.7 -1.0 5.2 90 0.7 WNW 35 39 19 21 1005.4 1005.7 0.2
14/02:30am 6.7 -1.0 5.2 90 0.7 WNW 35 46 19 25 1005.3 - 0.2
14/02:00am 6.7 -1.8 5.2 90 0.7 WNW 39 46 21 25 1005.0 - 0.2
14/01:30am 6.6 -1.9 5.1 90 0.7 WNW 39 44 21 24 1004.9 - 0.2
14/01:00am 6.6 -1.5 5.1 90 0.7 WNW 37 43 20 23 1004.8 - 0.2
14/12:30am 6.6 -0.8 5.2 91 0.6 WNW 33 43 18 23 1004.7 - 0.2
14/12:00am 6.7 -0.4 5.3 91 0.6 WNW 32 37 17 20 1004.5 1004.8 0.2
 
Date/Time
EDT
Temp
°C
App
Temp
°C
Dew
Point
°C
Rel
Hum
%
Delta-T
°C
Wind Press
QNH
hPa
Press
MSL
hPa
Rain since
9am
mm
Dir  Spd
km/h
Gust
km/h
Spd
kts
Gust
kts
13/11:30pm 7.1 0.7 5.3 88 0.8 WNW 28 35 15 19 1004.4 - 0.2
13/11:00pm 7.3 0.1 5.1 86 1.0 W 32 50 17 27 1004.1 - 0.2
13/10:30pm 7.0 0.6 5.2 88 0.8 WNW 28 35 15 19 1003.7 - 0.2
13/10:00pm 7.4 -1.1 5.2 86 1.0 W 39 46 21 25 1003.4 - 0.2
13/09:30pm 7.4 -1.5 5.0 85 1.1 W 41 48 22 26 1003.2 - 0.2
13/09:00pm 7.2 0.1 5.5 89 0.8 W 32 41 17 22 1002.6 1002.9 0.2
13/08:30pm 7.3 0.3 5.9 91 0.6 W 32 39 17 21 1002.0 - 0.2
13/08:00pm 7.5 -0.4 6.3 92 0.5 WNW 37 43 20 23 1001.6 - 0.2
13/07:30pm 7.7 -0.9 6.5 92 0.5 WNW 41 48 22 26 1000.8 - 0.2
13/07:00pm 8.0 -1.1 6.9 93 0.5 WNW 44 54 24 29 1000.5 - 0.2
13/06:30pm 8.0 -1.5 6.9 93 0.5 WNW 46 54 25 29 1000.2 - 0.2
13/06:00pm 8.1 -1.0 6.9 92 0.6 NW 44 54 24 29 999.7 1000.0 0.2
13/05:30pm 8.1 -0.8 6.7 91 0.6 NW 43 50 23 27 999.6 - 0.2
13/05:00pm 8.2 -0.4 6.5 89 0.8 NW 41 48 22 26 1000.0 - 0.2
13/04:30pm 8.1 0.2 6.2 88 0.9 NW 37 43 20 23 1000.3 - 0.2
13/04:00pm 8.7 1.2 6.3 85 1.1 NW 35 41 19 22 1000.5 - 0.2
13/03:30pm 9.2 2.1 6.5 83 1.3 WNW 33 37 18 20 1000.9 - 0.2
13/03:00pm 9.1 0.8 6.0 81 1.4 WNW 39 46 21 25 1001.2 1001.5 0.2
13/02:30pm 9.4 1.9 6.3 81 1.4 WNW 35 43 19 23 1001.1 - 0.0
13/02:00pm 9.4 2.1 5.6 77 1.7 W 33 41 18 22 1001.1 - 0.0
13/01:30pm 9.2 1.9 5.6 78 1.6 W 33 43 18 23 1001.0 - 0.0
13/01:00pm 8.3 0.2 5.1 80 1.4 W 37 50 20 27 1001.1 - 0.0

Other Formats:

Comma delimited format used in spreadsheet applications
http://www.bom.gov.au/fwo/IDT60801/IDT60801.94998.axf

JavaScript Object Notation format (JSON) in row-major order
http://www.bom.gov.au/fwo/IDT60801/IDT60801.94998.json